This is the latest recevied weather packets stored in our database for station/object DL4MGC-10. If no packets are shown the sender has not sent any weather packets the latest 10 day(s).
| Time | Temp. | Humidity | Pressure | Rain* | Wind** | Luminosity | Snow |
|---|---|---|---|---|---|---|---|
| 1778106289 | 11.67° C | 85% | 1010.5 hPa | - | - | - | - |
| 1778105389 | 11.67° C | 85% | 1010.3 hPa | - | - | - | - |
| 1778104489 | 11.67° C | 83% | 1010.2 hPa | - | - | - | - |
| 1778103588 | 11.67° C | 84% | 1010.1 hPa | - | - | - | - |
| 1778102688 | 12.22° C | 82% | 1010 hPa | - | - | - | - |
| 1778101788 | 12.22° C | 82% | 1009.9 hPa | - | - | - | - |
| 1778100888 | 12.22° C | 83% | 1009.9 hPa | - | - | - | - |
| 1778099988 | 12.22° C | 82% | 1009.8 hPa | - | - | - | - |
| 1778099088 | 12.22° C | 82% | 1009.8 hPa | - | - | - | - |
| 1778098188 | 12.22° C | 81% | 1009.7 hPa | - | - | - | - |
| 1778097288 | 12.78° C | 80% | 1009.5 hPa | - | - | - | - |
| 1778096388 | 12.22° C | 84% | 1009.6 hPa | - | - | - | - |
| 1778095488 | 11.67° C | 86% | 1009.4 hPa | - | - | - | - |
| 1778094588 | 13.33° C | 81% | 1009.4 hPa | - | - | - | - |
| 1778093688 | 12.78° C | 84% | 1009.2 hPa | - | - | - | - |
| 1778092787 | 13.33° C | 81% | 1009.1 hPa | - | - | - | - |
| 1778091888 | 13.33° C | 80% | 1008.9 hPa | - | - | - | - |
| 1778090987 | 13.89° C | 80% | 1008.6 hPa | - | - | - | - |
| 1778090087 | 13.89° C | 81% | 1008.3 hPa | - | - | - | - |
| 1778089187 | 13.89° C | 82% | 1008.1 hPa | - | - | - | - |
| 1778088287 | 14.44° C | 82% | 1007.6 hPa | - | - | - | - |
| 1778087387 | 14.44° C | 84% | 1007.4 hPa | - | - | - | - |
| 1778086487 | 14.44° C | 86% | 1007.2 hPa | - | - | - | - |
| 1778085587 | 15° C | 85% | 1007 hPa | - | - | - | - |
| 1778084687 | 14.44° C | 86% | 1006.9 hPa | - | - | - | - |
* Rain since midnight (hover to see other rain measurements)
** Current wind speed in m/s (hover to see current wind gust speed)